Time;durP1;ratioP1;P1;durP2;ratioP2;P2;SDS_P1;SDS_P2;PMS_P1;PMS_P2;Temp;Humidity;BMP_temperature;BMP_pressure;BME280_temperature;BME280_humidity;BME280_pressure;Samples;Min_cycle;Max_cycle;Signal;HPM_P1;HPM_P2
2023/09/13 00:01:34;;;;;;;8.90;7.85;;;;;;;26.51;50.99;100964.25;4997476;28;20053;-59
2023/09/13 00:04:02;;;;;;;9.88;8.85;;;;;;;26.51;50.89;100966.97;4998833;28;20049;-59
2023/09/13 00:06:30;;;;;;;9.02;8.23;;;;;;;26.52;50.73;100965.09;4997380;28;20123;-59
2023/09/13 00:08:57;;;;;;;9.60;8.65;;;;;;;26.51;50.96;100966.97;4997966;28;20046;-59
2023/09/13 00:11:24;;;;;;;9.15;8.25;;;;;;;26.52;50.78;100965.09;4997953;28;20401;-58
2023/09/13 00:13:52;;;;;;;8.65;7.85;;;;;;;26.52;50.96;100968.66;4998294;28;20053;-58
2023/09/13 00:16:19;;;;;;;8.93;8.02;;;;;;;26.53;50.75;100969.50;4997746;28;20416;-58
2023/09/13 00:18:47;;;;;;;9.82;8.82;;;;;;;26.51;50.96;100972.38;4979438;28;20039;-59
2023/09/13 00:21:14;;;;;;;9.63;8.73;;;;;;;26.52;50.76;100971.34;4993238;28;20042;-59
2023/09/13 00:23:41;;;;;;;9.60;8.60;;;;;;;26.52;51.00;100971.34;4998022;28;20484;-59
2023/09/13 00:26:09;;;;;;;9.68;8.80;;;;;;;26.52;50.78;100974.06;4997109;28;20038;-59
2023/09/13 00:28:38;;;;;;;8.70;7.90;;;;;;;26.53;50.85;100972.19;4995961;28;20497;-59
2023/09/13 00:31:09;;;;;;;9.68;8.77;;;;;;;26.53;50.93;100962.19;4997452;28;20050;-59
2023/09/13 00:33:36;;;;;;;9.13;8.32;;;;;;;26.52;50.78;100965.94;5004827;28;20492;-59
2023/09/13 00:36:04;;;;;;;10.35;8.70;;;;;;;26.53;50.72;100958.63;4996623;28;20413;-59
2023/09/13 00:38:31;;;;;;;9.35;8.30;;;;;;;26.52;50.79;100955.06;4995603;28;20054;-58
2023/09/13 00:40:59;;;;;;;8.73;7.93;;;;;;;26.54;50.77;100954.91;4994674;28;20077;-59
2023/09/13 00:43:26;;;;;;;9.20;8.23;;;;;;;26.53;50.94;100945.88;5004852;28;20509;-59
2023/09/13 00:45:54;;;;;;;9.25;8.35;;;;;;;26.52;50.98;100946.91;4997241;28;20058;-59
2023/09/13 00:48:23;;;;;;;8.57;7.78;;;;;;;26.53;50.98;100954.03;4994950;28;20051;-59
2023/09/13 00:50:51;;;;;;;9.52;8.63;;;;;;;26.53;50.93;100945.88;4996947;28;20060;-59
2023/09/13 00:53:22;;;;;;;8.98;8.18;;;;;;;26.53;51.01;100943.19;4979813;28;20065;-59
2023/09/13 00:55:51;;;;;;;9.18;8.27;;;;;;;26.53;51.01;100935.03;4996755;28;20054;-59
2023/09/13 00:58:19;;;;;;;9.48;8.38;;;;;;;26.53;50.99;100937.75;4995212;28;20051;-59
2023/09/13 01:00:49;;;;;;;8.95;8.05;;;;;;;26.55;51.00;100943.03;4998102;28;20046;-59
2023/09/13 01:03:17;;;;;;;8.90;8.10;;;;;;;26.53;50.88;100939.63;5004084;28;20054;-59
2023/09/13 01:05:45;;;;;;;9.60;7.93;;;;;;;26.52;50.77;100952.34;4996681;28;20497;-59
2023/09/13 01:08:13;;;;;;;8.63;7.72;;;;;;;26.54;50.96;100961.19;4990612;28;20053;-59
2023/09/13 01:10:41;;;;;;;8.07;7.35;;;;;;;26.53;50.85;100951.31;4997096;28;20069;-59
2023/09/13 01:13:08;;;;;;;9.65;8.73;;;;;;;26.53;50.85;100954.03;4996227;28;20046;-59
2023/09/13 01:15:46;;;;;;;9.30;8.38;;;;;;;26.54;51.05;100958.47;4996428;28;20050;-59
2023/09/13 01:18:38;;;;;;;9.40;8.38;;;;;;;26.53;51.09;100951.31;4990826;28;20039;-59
2023/09/13 01:21:39;;;;;;;8.82;7.95;;;;;;;26.54;51.03;100950.31;4982600;28;20047;-59
2023/09/13 01:24:22;;;;;;;8.60;7.82;;;;;;;26.53;50.81;100945.88;4991186;28;20047;-59
2023/09/13 01:27:08;;;;;;;8.57;7.78;;;;;;;26.53;51.03;100954.03;5000594;28;20061;-59
2023/09/13 01:29:37;;;;;;;9.18;7.95;;;;;;;26.52;50.96;100944.22;4996501;28;20046;-58
2023/09/13 01:32:04;;;;;;;9.50;8.60;;;;;;;26.54;50.96;100944.91;4995771;28;20097;-59
2023/09/13 01:34:32;;;;;;;9.70;8.27;;;;;;;26.53;50.86;100945.06;4996880;28;20042;-59
2023/09/13 01:36:59;;;;;;;9.13;8.23;;;;;;;26.52;50.95;100937.94;4995389;28;20049;-58
2023/09/13 01:39:28;;;;;;;9.15;8.35;;;;;;;26.53;51.08;100943.19;4994520;28;20050;-59
2023/09/13 01:42:06;;;;;;;9.45;8.65;;;;;;;26.53;50.97;100940.47;4995728;28;20054;-59
2023/09/13 01:44:35;;;;;;;8.68;7.88;;;;;;;26.53;50.79;100942.34;4995654;28;20053;-59
2023/09/13 01:47:05;;;;;;;8.73;7.93;;;;;;;26.54;51.08;100944.06;4994433;28;20058;-59
2023/09/13 01:49:36;;;;;;;8.77;7.97;;;;;;;26.54;50.93;100935.91;4989912;28;20043;-59
2023/09/13 01:52:04;;;;;;;8.45;7.65;;;;;;;26.53;50.88;100937.75;4996283;28;20061;-59
2023/09/13 01:54:33;;;;;;;8.30;7.60;;;;;;;26.53;50.97;100929.59;4995206;28;20522;-59
2023/09/13 01:57:01;;;;;;;8.13;7.32;;;;;;;26.54;51.08;100927.75;4995382;28;20058;-59
2023/09/13 01:59:29;;;;;;;8.93;8.02;;;;;;;26.53;50.97;100929.59;4994430;28;20046;-59
2023/09/13 02:01:56;;;;;;;8.43;7.70;;;;;;;26.54;51.00;100927.75;5001285;28;20125;-59
2023/09/13 02:04:25;;;;;;;9.93;8.38;;;;;;;26.54;51.16;100925.03;4995269;28;20505;-59
2023/09/13 02:06:53;;;;;;;8.65;7.85;;;;;;;26.54;50.98;100922.34;5001041;28;20497;-59
2023/09/13 02:09:21;;;;;;;8.93;7.85;;;;;;;26.53;51.17;100918.75;4994247;28;20057;-59
2023/09/13 02:11:48;;;;;;;8.65;7.85;;;;;;;26.54;50.97;100917.75;5002173;28;20053;-59
2023/09/13 02:14:15;;;;;;;8.68;7.70;;;;;;;26.53;51.06;100915.19;5001363;28;20492;-59
2023/09/13 02:16:43;;;;;;;8.27;7.47;;;;;;;26.54;51.14;100919.63;5000643;28;20054;-59
2023/09/13 02:19:10;;;;;;;9.27;8.48;;;;;;;26.53;51.19;100916.03;4995025;28;20681;-59
2023/09/13 02:21:38;;;;;;;9.45;8.55;;;;;;;26.53;50.98;100916.03;4979976;28;20053;-59
2023/09/13 02:24:05;;;;;;;8.25;7.55;;;;;;;26.53;50.99;100917.91;4994056;28;20054;-59
2023/09/13 02:26:33;;;;;;;7.82;7.13;;;;;;;26.52;51.14;100925.19;4995329;28;20421;-59
2023/09/13 02:29:00;;;;;;;8.98;8.07;;;;;;;26.53;51.19;100926.03;4995116;28;20061;-59
2023/09/13 02:31:28;;;;;;;8.88;8.05;;;;;;;26.53;51.09;100926.88;4994930;28;20053;-59
2023/09/13 02:33:55;;;;;;;9.43;8.43;;;;;;;26.53;51.14;100916.03;4993662;28;20053;-59
2023/09/13 02:36:23;;;;;;;8.85;8.02;;;;;;;26.53;51.23;100916.03;4993531;28;20058;-59
2023/09/13 02:38:52;;;;;;;8.57;7.78;;;;;;;26.54;51.00;100927.75;4995066;28;20045;-59
2023/09/13 02:41:20;;;;;;;8.55;7.75;;;;;;;26.53;51.14;100926.03;4995739;28;20046;-59
2023/09/13 02:43:47;;;;;;;9.05;8.25;;;;;;;26.53;50.99;100926.03;4995031;28;20054;-59
2023/09/13 02:46:15;;;;;;;8.85;8.00;;;;;;;26.53;51.14;100915.19;4995205;28;20042;-59
2023/09/13 02:48:42;;;;;;;8.35;7.55;;;;;;;26.52;51.28;100922.50;4993729;28;20057;-59
2023/09/13 02:51:14;;;;;;;8.45;7.70;;;;;;;26.53;51.14;100912.47;4995653;28;20506;-59
2023/09/13 02:53:41;;;;;;;8.75;7.95;;;;;;;26.51;51.00;100904.50;4995146;28;20050;-59
2023/09/13 02:56:09;;;;;;;8.63;7.82;;;;;;;26.52;51.08;100917.06;4993342;28;20065;-59
2023/09/13 02:58:37;;;;;;;8.88;7.97;;;;;;;26.52;51.13;100913.50;4993339;28;20055;-58
2023/09/13 03:01:10;;;;;;;8.30;7.50;;;;;;;26.52;51.00;100916.22;5003255;28;20065;-59
2023/09/13 03:03:40;;;;;;;9.75;8.75;;;;;;;26.52;51.29;100914.34;4993378;28;20398;-58
2023/09/13 03:06:15;;;;;;;8.65;7.88;;;;;;;26.52;51.25;100922.50;4998565;28;20046;-59
2023/09/13 03:08:44;;;;;;;9.02;8.20;;;;;;;26.51;50.83;100923.53;4998452;28;20050;-58
2023/09/13 03:11:18;;;;;;;9.02;8.20;;;;;;;26.51;51.09;100925.38;4997795;28;20058;-59
2023/09/13 03:13:46;;;;;;;9.23;8.30;;;;;;;26.51;51.08;100928.94;4997730;28;20053;-59
2023/09/13 03:16:15;;;;;;;8.93;8.10;;;;;;;26.51;51.25;100923.53;4996898;28;20062;-59
2023/09/13 03:18:44;;;;;;;8.68;7.78;;;;;;;26.51;51.06;100920.81;4997643;28;20056;-59
2023/09/13 03:21:13;;;;;;;8.40;7.65;;;;;;;26.51;51.09;100915.38;4986138;28;20059;-59
2023/09/13 03:23:45;;;;;;;8.10;7.40;;;;;;;26.51;51.20;100912.66;4989081;28;20050;-59
2023/09/13 03:26:21;;;;;;;9.23;8.32;;;;;;;26.51;51.21;100904.50;5003769;28;20054;-59
2023/09/13 03:28:51;;;;;;;9.90;9.00;;;;;;;26.51;51.17;100909.09;5004584;28;20057;-59
2023/09/13 03:31:22;;;;;;;8.90;8.05;;;;;;;26.52;51.09;100911.63;4996810;28;20421;-59
2023/09/13 03:33:52;;;;;;;9.30;8.15;;;;;;;26.52;51.16;100902.63;4996800;28;20401;-59
2023/09/13 03:36:20;;;;;;;9.00;8.20;;;;;;;26.51;51.27;100896.38;4997478;28;20055;-59
2023/09/13 03:38:52;;;;;;;8.82;8.00;;;;;;;26.50;51.37;100899.28;5001835;28;20054;-59
2023/09/13 03:41:23;;;;;;;9.50;8.60;;;;;;;26.51;51.15;100907.22;4996549;28;20054;-59
2023/09/13 03:43:51;;;;;;;8.77;7.97;;;;;;;26.50;51.31;100905.53;4996521;28;20061;-59
2023/09/13 03:46:19;;;;;;;8.75;7.85;;;;;;;26.51;51.30;100904.50;4998166;28;20053;-59
2023/09/13 03:48:50;;;;;;;8.77;7.97;;;;;;;26.50;51.37;100902.84;4996558;28;20057;-59
2023/09/13 03:51:18;;;;;;;8.55;7.65;;;;;;;26.50;51.10;100910.13;4996789;28;20050;-59
2023/09/13 03:53:48;;;;;;;9.00;8.20;;;;;;;26.51;51.18;100914.53;4997043;28;20046;-59
2023/09/13 03:56:15;;;;;;;9.30;8.38;;;;;;;26.50;50.87;100905.53;4996267;28;20050;-59
2023/09/13 03:58:43;;;;;;;8.77;7.95;;;;;;;26.50;51.35;100904.69;5012611;28;20095;-59
2023/09/13 04:01:11;;;;;;;8.90;8.10;;;;;;;26.50;51.10;100908.25;4996540;28;20054;-59
2023/09/13 04:03:39;;;;;;;9.35;8.45;;;;;;;26.49;51.12;100903.84;4996993;28;20054;-59
2023/09/13 04:06:06;;;;;;;8.50;7.80;;;;;;;26.50;51.23;100899.28;4986323;28;20535;-59
2023/09/13 04:08:34;;;;;;;8.63;7.82;;;;;;;26.50;51.11;100907.41;4996510;28;20054;-59
2023/09/13 04:11:02;;;;;;;9.38;8.55;;;;;;;26.49;51.21;100903.84;4996136;28;20054;-59
2023/09/13 04:13:30;;;;;;;8.90;8.10;;;;;;;26.50;51.32;100912.84;4998130;28;20047;-59
2023/09/13 04:16:06;;;;;;;9.02;8.23;;;;;;;26.49;51.18;100920.13;4996505;28;20076;-59
2023/09/13 04:18:35;;;;;;;9.32;8.43;;;;;;;26.48;51.18;100913.00;4996001;28;20520;-60
2023/09/13 04:21:04;;;;;;;9.35;8.32;;;;;;;26.46;50.82;100914.22;4986574;28;20366;-60
2023/09/13 04:23:31;;;;;;;8.55;7.75;;;;;;;26.44;50.76;100922.50;4985773;28;20062;-60
2023/09/13 04:25:59;;;;;;;10.13;9.13;;;;;;;26.43;50.71;100920.81;4995632;28;20062;-60
2023/09/13 04:28:27;;;;;;;9.68;8.77;;;;;;;26.42;50.59;100924.56;5000636;28;20883;-60
2023/09/13 04:30:58;;;;;;;10.10;9.07;;;;;;;26.42;50.57;100929.16;5005728;28;20057;-60
2023/09/13 04:33:45;;;;;;;10.80;9.80;;;;;;;26.39;50.37;100935.75;4997339;28;20046;-60
2023/09/13 04:36:13;;;;;;;10.68;9.57;;;;;;;26.37;50.44;100938.66;5000359;28;20412;-60
2023/09/13 04:38:41;;;;;;;10.48;9.50;;;;;;;26.36;50.41;100949.69;5000501;28;20061;-60
2023/09/13 04:41:16;;;;;;;10.73;9.73;;;;;;;26.35;50.38;100956.13;5013109;28;20041;-60
2023/09/13 04:43:44;;;;;;;10.23;9.23;;;;;;;26.33;50.44;100959.03;4995375;28;20057;-60
2023/09/13 04:46:13;;;;;;;10.98;9.88;;;;;;;26.32;50.42;100962.75;4995516;28;20054;-60
2023/09/13 04:48:41;;;;;;;10.23;9.32;;;;;;;26.32;50.24;100956.47;4995474;28;20050;-60
2023/09/13 04:51:10;;;;;;;9.63;8.73;;;;;;;26.31;50.21;100954.78;4997632;28;20046;-60
2023/09/13 04:53:39;;;;;;;9.80;8.90;;;;;;;26.30;50.24;100955.81;4995248;28;20053;-60
2023/09/13 04:56:06;;;;;;;9.35;8.50;;;;;;;26.29;50.33;100968.53;4995435;28;20058;-60
2023/09/13 04:58:39;;;;;;;9.45;8.55;;;;;;;26.29;50.36;100976.69;4995569;28;20477;-60
2023/09/13 05:01:08;;;;;;;10.48;9.00;;;;;;;26.30;50.33;100977.53;4996729;28;20050;-60
2023/09/13 05:03:35;;;;;;;10.18;8.90;;;;;;;26.27;50.27;100976.00;4995220;28;20057;-60
2023/09/13 05:06:03;;;;;;;9.75;8.75;;;;;;;26.29;50.16;100981.25;5001189;28;20046;-60
2023/09/13 05:08:36;;;;;;;10.03;8.60;;;;;;;26.27;50.16;100986.00;5002369;28;20061;-63
2023/09/13 05:11:03;;;;;;;9.00;8.10;;;;;;;26.27;49.98;100991.44;4985696;28;20072;-63
2023/09/13 05:13:31;;;;;;;9.23;8.43;;;;;;;26.27;49.99;100991.44;5001725;28;20050;-63
2023/09/13 05:15:58;;;;;;;9.40;8.20;;;;;;;26.26;50.09;100993.31;4994740;28;20058;-63
2023/09/13 05:18:26;;;;;;;8.63;7.72;;;;;;;26.24;50.20;100999.94;4997559;28;20050;-60
2023/09/13 05:20:53;;;;;;;8.43;7.63;;;;;;;26.26;50.11;101006.03;4996071;28;20531;-60
2023/09/13 05:23:21;;;;;;;8.70;7.80;;;;;;;26.26;50.18;101012.31;4985558;28;20041;-60
2023/09/13 05:25:49;;;;;;;9.32;7.72;;;;;;;26.25;50.13;101005.19;4989719;28;20050;-60
2023/09/13 05:28:16;;;;;;;8.55;7.68;;;;;;;26.24;50.30;101003.47;4996627;28;20429;-62
2023/09/13 05:30:48;;;;;;;8.98;8.18;;;;;;;26.25;50.09;101004.31;4995919;28;20046;-63
2023/09/13 05:33:16;;;;;;;9.13;8.05;;;;;;;26.24;50.04;101014.34;4996237;28;20049;-63
2023/09/13 05:35:44;;;;;;;8.70;7.88;;;;;;;26.23;50.04;101009.94;4995532;28;20054;-63
2023/09/13 05:38:11;;;;;;;8.40;7.57;;;;;;;26.21;50.11;101014.72;4995975;28;20062;-62
2023/09/13 05:40:38;;;;;;;9.25;8.30;;;;;;;26.22;50.31;101010.13;4995680;28;20050;-63
2023/09/13 05:43:06;;;;;;;8.00;7.30;;;;;;;26.20;50.34;101012.16;4994521;28;20046;-63
2023/09/13 05:45:33;;;;;;;9.18;7.63;;;;;;;26.21;50.45;101014.72;4998518;28;20093;-63
2023/09/13 05:48:02;;;;;;;8.45;7.65;;;;;;;26.21;50.44;101014.72;5003230;28;20050;-61
2023/09/13 05:50:29;;;;;;;8.18;7.38;;;;;;;26.22;50.33;101012.84;5000109;28;20053;-59
2023/09/13 05:52:57;;;;;;;9.13;8.23;;;;;;;26.22;50.22;101004.69;4999495;28;20055;-60
2023/09/13 05:55:24;;;;;;;8.30;7.43;;;;;;;26.21;50.41;101003.84;4994970;28;20508;-59
2023/09/13 05:57:52;;;;;;;7.28;6.57;;;;;;;26.22;50.30;101002.81;4996303;28;20050;-58
2023/09/13 06:00:19;;;;;;;8.77;7.88;;;;;;;26.24;50.50;100994.50;4995593;28;20038;-59
2023/09/13 06:02:47;;;;;;;8.90;7.40;;;;;;;26.24;50.79;100995.34;4995297;28;20050;-59
2023/09/13 06:05:14;;;;;;;8.75;7.85;;;;;;;26.27;51.13;100996.88;4995191;28;20053;-59
2023/09/13 06:07:42;;;;;;;9.00;8.10;;;;;;;26.28;51.04;100996.69;5001089;28;20049;-59
2023/09/13 06:10:11;;;;;;;8.88;7.55;;;;;;;26.29;51.11;100995.69;4995354;28;20519;-59
2023/09/13 06:12:38;;;;;;;8.30;7.45;;;;;;;26.31;51.07;101003.66;4995209;28;20058;-59
2023/09/13 06:15:07;;;;;;;7.05;6.35;;;;;;;26.32;51.29;101003.47;4995074;28;20061;-59
2023/09/13 06:17:36;;;;;;;8.23;7.43;;;;;;;26.33;51.26;101013.31;4996197;28;20053;-59
2023/09/13 06:20:05;;;;;;;7.65;6.80;;;;;;;26.35;51.19;101015.84;4994710;28;20401;-59
2023/09/13 06:22:33;;;;;;;10.18;6.78;;;;;;;26.36;51.25;101028.38;4994937;28;20043;-59
2023/09/13 06:25:01;;;;;;;7.57;6.82;;;;;;;26.35;51.19;101037.56;4981254;28;20038;-59
2023/09/13 06:27:34;;;;;;;8.95;7.72;;;;;;;26.37;51.25;101040.94;4996158;28;20050;-61
2023/09/13 06:30:02;;;;;;;7.78;7.05;;;;;;;26.38;51.29;101048.94;4994829;28;20409;-60
2023/09/13 06:32:31;;;;;;;8.25;7.28;;;;;;;26.38;51.19;101054.34;4999400;28;20043;-59
2023/09/13 06:35:12;;;;;;;8.88;7.07;;;;;;;26.39;51.16;101053.31;4993431;28;20049;-59
2023/09/13 06:37:47;;;;;;;8.32;7.53;;;;;;;26.40;51.30;101062.31;4994774;28;20050;-59
2023/09/13 06:40:16;;;;;;;7.25;6.55;;;;;;;26.41;51.31;101063.16;5001069;28;20053;-59
2023/09/13 06:42:44;;;;;;;9.10;6.78;;;;;;;26.43;51.46;101063.84;4994960;28;20050;-59
2023/09/13 06:45:14;;;;;;;7.93;6.93;;;;;;;26.43;51.51;101075.53;4995961;28;20392;-59
2023/09/13 06:47:53;;;;;;;8.50;7.68;;;;;;;26.44;51.84;101076.38;4993467;28;20046;-59
2023/09/13 06:50:20;;;;;;;8.27;7.47;;;;;;;26.45;51.70;101083.53;4995091;28;20489;-59
2023/09/13 06:53:08;;;;;;;7.68;6.97;;;;;;;26.44;51.58;101082.66;4996344;28;20380;-59
2023/09/13 06:55:56;;;;;;;8.65;7.43;;;;;;;26.45;51.64;101088.97;4994522;28;20050;-59
2023/09/13 06:58:27;;;;;;;8.15;7.40;;;;;;;26.45;51.73;101089.81;4979546;28;20035;-59
2023/09/13 07:00:56;;;;;;;8.02;7.22;;;;;;;26.44;51.66;101093.53;4995166;28;20046;-59
2023/09/13 07:03:43;;;;;;;8.40;7.57;;;;;;;26.44;51.61;101088.09;4993852;28;20046;-59
2023/09/13 07:06:19;;;;;;;9.80;7.65;;;;;;;26.44;51.59;101081.81;4994321;28;20046;-58
2023/09/13 07:08:47;;;;;;;9.25;8.38;;;;;;;26.42;51.52;101089.31;4996121;28;20041;-59
2023/09/13 07:11:15;;;;;;;12.82;8.07;;;;;;;26.40;51.82;101094.88;4994719;28;20053;-58
2023/09/13 07:13:43;;;;;;;10.13;8.38;;;;;;;26.36;52.01;101094.38;4995006;28;20047;-58
2023/09/13 07:16:10;;;;;;;12.20;9.55;;;;;;;26.32;52.26;101098.47;4995034;28;20441;-59
2023/09/13 07:18:38;;;;;;;10.05;9.10;;;;;;;26.30;52.66;101094.25;4996943;28;20042;-58
2023/09/13 07:21:05;;;;;;;9.93;8.93;;;;;;;26.27;52.72;101100.84;4994832;28;20053;-58
2023/09/13 07:23:33;;;;;;;10.75;9.32;;;;;;;26.25;53.18;101102.91;4994229;28;20057;-59
2023/09/13 07:26:01;;;;;;;12.70;10.27;;;;;;;26.22;53.29;101096.97;4995055;28;20042;-58
2023/09/13 07:28:30;;;;;;;11.55;9.65;;;;;;;26.20;53.52;101093.56;4995072;28;20069;-58
2023/09/13 07:30:57;;;;;;;10.13;8.88;;;;;;;26.17;53.65;101096.59;4994564;28;20046;-58
2023/09/13 07:33:25;;;;;;;9.10;8.27;;;;;;;26.15;53.66;101091.34;4994421;28;20053;-60
2023/09/13 07:35:52;;;;;;;11.23;9.48;;;;;;;26.13;53.93;101085.28;4993968;28;20428;-59
2023/09/13 07:38:20;;;;;;;8.88;7.97;;;;;;;26.14;54.11;101078.81;4995313;28;20053;-60
2023/09/13 07:40:47;;;;;;;10.18;8.65;;;;;;;26.14;54.18;101089.69;4994037;28;20050;-61
2023/09/13 07:43:16;;;;;;;9.82;8.55;;;;;;;26.13;54.42;101091.53;4994264;28;20049;-60
2023/09/13 07:45:45;;;;;;;10.32;9.32;;;;;;;26.14;54.54;101081.53;4994156;28;20515;-60
2023/09/13 07:48:12;;;;;;;11.63;9.43;;;;;;;26.13;54.90;101067.13;4995229;28;20403;-59
2023/09/13 07:50:44;;;;;;;11.55;9.02;;;;;;;26.12;55.41;101076.25;4995711;28;20050;-59
2023/09/13 07:53:12;;;;;;;14.88;10.23;;;;;;;26.10;55.35;101075.59;4997795;28;20048;-58
2023/09/13 07:55:40;;;;;;;10.73;9.73;;;;;;;26.10;55.33;101075.59;4998390;28;20055;-58
2023/09/13 07:58:08;;;;;;;10.07;8.82;;;;;;;26.10;55.34;101070.16;4995246;28;20039;-59
2023/09/13 08:00:36;;;;;;;10.95;9.13;;;;;;;26.12;55.27;101075.41;4985598;28;20076;-58
2023/09/13 08:03:04;;;;;;;11.70;8.82;;;;;;;26.13;55.27;101077.97;4997398;28;20425;-59
2023/09/13 08:05:32;;;;;;;10.98;9.23;;;;;;;26.13;55.59;101077.97;4998139;28;20401;-59
2023/09/13 08:08:00;;;;;;;10.73;9.65;;;;;;;26.12;55.92;101061.84;4997856;28;20415;-59
2023/09/13 08:10:27;;;;;;;9.75;8.75;;;;;;;26.11;56.24;101069.16;4997439;28;20524;-61
2023/09/13 08:12:55;;;;;;;13.13;8.95;;;;;;;26.09;56.80;101063.06;4996342;28;20049;-61
2023/09/13 08:15:22;;;;;;;10.93;9.32;;;;;;;26.10;56.61;101064.75;4998271;28;20050;-61
2023/09/13 08:18:09;;;;;;;12.13;9.73;;;;;;;26.09;57.19;101071.19;4984097;28;20052;-60
2023/09/13 08:20:37;;;;;;;12.73;10.43;;;;;;;26.07;57.26;101084.06;4994922;28;20072;-60
2023/09/13 08:23:04;;;;;;;12.02;10.73;;;;;;;26.08;57.53;101091.19;4996826;28;20047;-60
2023/09/13 08:25:32;;;;;;;12.25;10.10;;;;;;;26.07;57.37;101089.50;4998287;28;20503;-61
2023/09/13 08:27:59;;;;;;;13.95;12.35;;;;;;;26.05;57.69;101096.97;4997373;28;20050;-58
2023/09/13 08:30:27;;;;;;;11.45;10.15;;;;;;;26.03;57.60;101109.84;4997365;28;20054;-59
2023/09/13 08:32:54;;;;;;;12.95;9.77;;;;;;;26.02;57.60;101113.59;4995572;28;20046;-58
2023/09/13 08:35:21;;;;;;;10.55;9.50;;;;;;;26.01;57.55;101111.91;4997741;28;20056;-59
2023/09/13 08:37:49;;;;;;;11.38;9.05;;;;;;;26.03;57.58;101123.41;4996823;28;20062;-59
2023/09/13 08:40:16;;;;;;;11.77;9.40;;;;;;;26.06;57.62;101133.09;4997552;28;20046;-60
2023/09/13 08:42:46;;;;;;;9.52;8.57;;;;;;;26.07;57.59;101132.06;4996669;28;20382;-60
2023/09/13 08:45:13;;;;;;;9.55;8.55;;;;;;;26.08;57.46;101140.03;4996591;28;20056;-60
2023/09/13 08:47:44;;;;;;;10.25;8.50;;;;;;;26.09;57.56;101140.88;4997383;28;20073;-60
2023/09/13 08:50:28;;;;;;;12.40;9.00;;;;;;;26.10;57.94;101143.44;4996947;28;20057;-60
2023/09/13 08:53:00;;;;;;;11.33;9.67;;;;;;;26.11;58.08;101136.97;4997709;28;20046;-60
2023/09/13 08:55:31;;;;;;;10.23;9.18;;;;;;;26.12;58.46;101118.81;4996297;28;20050;-60
2023/09/13 08:57:59;;;;;;;10.90;9.80;;;;;;;26.12;58.68;101124.25;4997091;28;20051;-60
2023/09/13 09:00:32;;;;;;;12.20;9.13;;;;;;;26.12;58.69;101118.81;4982932;28;20046;-59
2023/09/13 09:03:04;;;;;;;14.88;8.65;;;;;;;26.12;58.25;101132.41;5012532;28;20061;-59
2023/09/13 09:05:32;;;;;;;11.60;8.95;;;;;;;26.14;57.88;101138.50;5013750;28;20049;-59
2023/09/13 09:08:02;;;;;;;10.98;8.52;;;;;;;26.20;57.71;101139.69;5013656;28;20061;-59
2023/09/13 09:10:31;;;;;;;14.60;9.68;;;;;;;26.22;57.44;101141.22;5014448;28;20389;-58
2023/09/13 09:13:00;;;;;;;10.98;9.13;;;;;;;26.22;57.52;101135.81;5013913;28;20045;-59
2023/09/13 09:15:31;;;;;;;13.63;10.63;;;;;;;26.21;57.86;101138.66;5013942;28;20416;-56
2023/09/13 09:18:01;;;;;;;11.50;10.43;;;;;;;26.20;57.82;101132.41;5013713;28;20053;-60
2023/09/13 09:20:30;;;;;;;12.88;10.00;;;;;;;26.16;58.02;101131.03;5012661;28;20492;-57
2023/09/13 09:22:58;;;;;;;12.73;9.50;;;;;;;26.16;57.68;101122.06;5013314;28;20399;-57
2023/09/13 09:25:29;;;;;;;10.32;9.05;;;;;;;26.17;57.66;101132.75;5013569;28;20050;-57
2023/09/13 09:27:57;;;;;;;12.45;9.52;;;;;;;26.18;57.56;101136.31;5014834;28;20056;-60
2023/09/13 09:30:32;;;;;;;12.15;10.85;;;;;;;26.18;57.59;101147.16;5012101;28;20500;-57
2023/09/13 09:33:04;;;;;;;13.15;10.90;;;;;;;26.17;57.49;101146.31;5013210;28;20049;-60
2023/09/13 09:35:32;;;;;;;11.40;10.17;;;;;;;26.16;57.28;101138.34;5013404;28;20484;-60
2023/09/13 09:38:01;;;;;;;14.20;11.85;;;;;;;26.12;56.75;101133.25;5012936;28;20286;-60
2023/09/13 09:40:38;;;;;;;12.95;11.52;;;;;;;26.09;56.60;101125.47;4985420;28;20045;-62
2023/09/13 09:43:08;;;;;;;12.40;11.10;;;;;;;26.07;56.82;101127.47;5010752;28;20041;-62
2023/09/13 09:45:35;;;;;;;11.73;10.60;;;;;;;26.08;56.54;101137.31;5014066;28;20049;-62
2023/09/13 09:48:03;;;;;;;12.68;11.40;;;;;;;26.09;56.50;101140.88;5011918;28;20169;-60
2023/09/13 09:50:31;;;;;;;13.05;10.52;;;;;;;26.08;56.48;101142.72;5013347;28;20054;-60
2023/09/13 09:52:59;;;;;;;11.60;9.43;;;;;;;26.10;56.39;101137.16;5013762;28;20046;-60
2023/09/13 09:55:26;;;;;;;14.52;10.48;;;;;;;26.12;56.40;101141.38;5012803;28;20042;-59
2023/09/13 09:57:55;;;;;;;12.13;10.15;;;;;;;26.16;56.35;101141.03;5011615;28;20054;-61
2023/09/13 10:00:23;;;;;;;9.95;8.57;;;;;;;26.18;56.13;101141.75;5003943;28;20063;-63
2023/09/13 10:02:50;;;;;;;10.80;9.70;;;;;;;26.19;56.01;101138.84;4994687;28;20045;-64
2023/09/13 10:05:18;;;;;;;12.52;8.73;;;;;;;26.20;56.07;101132.41;5013277;28;20385;-64
2023/09/13 10:07:57;;;;;;;10.60;9.45;;;;;;;26.23;55.84;101134.78;5013070;28;20050;-63
2023/09/13 10:10:35;;;;;;;10.15;8.00;;;;;;;26.25;55.83;101140.91;5013356;28;20049;-60
2023/09/13 10:13:04;;;;;;;10.23;8.23;;;;;;;26.26;55.67;101128.16;5013219;28;20053;-60
2023/09/13 10:15:32;;;;;;;9.77;8.75;;;;;;;26.27;55.66;101125.28;5011634;28;20049;-60
2023/09/13 10:18:01;;;;;;;9.25;8.27;;;;;;;26.30;55.51;101140.38;5012483;28;20053;-62
2023/09/13 10:20:33;;;;;;;8.07;6.93;;;;;;;26.31;55.47;101142.06;5012617;28;20045;-63
2023/09/13 10:23:02;;;;;;;8.60;7.72;;;;;;;26.30;55.38;101130.38;5012545;28;20049;-63
2023/09/13 10:25:32;;;;;;;9.07;7.90;;;;;;;26.32;55.40;101128.31;5011964;28;20057;-63
2023/09/13 10:28:03;;;;;;;8.55;7.70;;;;;;;26.34;55.28;101128.16;5012691;28;20069;-63
2023/09/13 10:30:35;;;;;;;9.07;8.18;;;;;;;26.35;55.08;101129.84;5012623;28;20057;-60
2023/09/13 10:33:06;;;;;;;8.98;7.47;;;;;;;26.36;54.91;101129.66;5012087;28;20046;-60
2023/09/13 10:35:40;;;;;;;10.00;8.15;;;;;;;26.36;55.01;101121.53;4983839;28;20496;-60
2023/09/13 10:38:15;;;;;;;9.98;8.05;;;;;;;26.36;54.96;101126.94;5012332;28;20054;-62
2023/09/13 10:40:48;;;;;;;7.85;7.03;;;;;;;26.37;54.80;101123.25;5012419;28;20057;-63
2023/09/13 10:43:15;;;;;;;8.80;7.68;;;;;;;26.38;54.61;101124.94;5000034;28;20053;-63
2023/09/13 10:45:43;;;;;;;9.05;7.30;;;;;;;26.39;54.63;101120.34;5012119;28;20397;-63
2023/09/13 10:48:11;;;;;;;8.23;7.30;;;;;;;26.39;54.64;101126.63;5012328;28;20050;-62
2023/09/13 10:50:39;;;;;;;7.05;6.35;;;;;;;26.39;54.45;101123.91;5012345;28;20054;-63
2023/09/13 10:53:09;;;;;;;7.40;6.70;;;;;;;26.41;54.40;101131.03;5011306;28;20048;-63
2023/09/13 10:55:37;;;;;;;7.93;7.05;;;;;;;26.42;54.39;101125.44;5012364;28;20045;-63
2023/09/13 10:58:08;;;;;;;8.32;7.20;;;;;;;26.42;53.94;101120.00;5012104;28;20061;-62
2023/09/13 11:00:37;;;;;;;9.50;6.75;;;;;;;26.43;54.06;101129.84;5010310;28;20397;-63
2023/09/13 11:03:05;;;;;;;7.85;7.03;;;;;;;26.43;54.04;101135.28;4984157;28;20048;-63
2023/09/13 11:05:33;;;;;;;8.38;6.70;;;;;;;26.43;54.18;101127.13;5012195;28;20068;-63
2023/09/13 11:08:01;;;;;;;7.63;6.82;;;;;;;26.43;54.00;101121.69;5011696;28;20042;-61
2023/09/13 11:10:32;;;;;;;8.13;6.85;;;;;;;26.45;54.01;101107.97;5011329;28;20053;-63
2023/09/13 11:13:12;;;;;;;8.43;7.18;;;;;;;26.44;53.86;101104.38;5011914;28;20045;-63
2023/09/13 11:15:50;;;;;;;7.00;6.30;;;;;;;26.45;53.71;101097.13;5011937;28;20042;-63
2023/09/13 11:18:18;;;;;;;8.82;6.25;;;;;;;26.45;53.66;101106.09;5010936;28;20064;-60
2023/09/13 11:20:45;;;;;;;9.65;7.43;;;;;;;26.45;53.63;101100.66;4983704;28;20412;-60
2023/09/13 11:23:18;;;;;;;7.05;6.25;;;;;;;26.45;53.60;101108.81;5012153;28;20053;-60
2023/09/13 11:25:50;;;;;;;7.10;6.40;;;;;;;26.46;53.58;101115.97;5013280;28;20049;-60
2023/09/13 11:28:36;;;;;;;7.93;6.78;;;;;;;26.46;53.58;101123.25;5015189;28;20057;-60
2023/09/13 11:31:05;;;;;;;7.95;7.15;;;;;;;26.45;53.32;101107.97;5015962;28;20053;-59
2023/09/13 11:33:55;;;;;;;7.18;6.32;;;;;;;26.45;53.35;101103.38;5015600;28;20042;-59